X  Close Metar Aviation Weather Data        EGLF Farnborough
Temperature
5°C Temperature
3°C Dewpoint
87% Humidity



Wind
8 MPH
13 KM/H
4 M/S
7 KTS



60°
ENE
Current Conditions

Partly Cloudy Partly Cloudy
Pressure 1017 (hPa) - 30.04 (inHg)
Visibility 30 (mile) - 48 (km)
Airport
Airport-code EGLF

Location: Farnborough
Distance: 5 (mi)

Metar:
METAR EGLF 271320Z 06007KT 9999 FEW019 SCT029 05/03 Q1017

Time: 27-11-2020 13:20 GMT